Time;durP1;ratioP1;P1;durP2;ratioP2;P2;SDS_P1;SDS_P2;PMS_P1;PMS_P2;Temp;Humidity;BMP_temperature;BMP_pressure;BME280_temperature;BME280_humidity;BME280_pressure;Samples;Min_cycle;Max_cycle;Signal;HPM_P1;HPM_P2
2024/01/07 00:01:26;;;;;;;0.70;0.70;;;;;;;;;;5029287;28;20056;-61
2024/01/07 00:03:52;;;;;;;1.43;1.33;;;;;;;;;;5028888;28;20057;-61
2024/01/07 00:06:17;;;;;;;1.53;1.43;;;;;;;;;;5029518;28;20022;-62
2024/01/07 00:08:42;;;;;;;1.00;0.67;;;;;;;;;;5027786;28;20067;-62
2024/01/07 00:11:07;;;;;;;0.67;0.67;;;;;;;;;;5028117;28;20033;-62
2024/01/07 00:13:33;;;;;;;1.00;1.00;;;;;;;;;;5028698;28;20140;-62
2024/01/07 00:15:58;;;;;;;0.77;0.77;;;;;;;;;;5028870;28;20087;-62
2024/01/07 00:18:24;;;;;;;0.60;0.60;;;;;;;;;;5028898;28;20036;-61
2024/01/07 00:20:49;;;;;;;2.17;0.90;;;;;;;;;;5003103;28;20445;-62
2024/01/07 00:23:14;;;;;;;0.60;0.60;;;;;;;;;;5028907;28;20044;-62
2024/01/07 00:25:40;;;;;;;0.70;0.70;;;;;;;;;;5029250;28;20040;-62
2024/01/07 00:28:05;;;;;;;0.80;0.80;;;;;;;;;;5029169;28;20025;-62
2024/01/07 00:30:30;;;;;;;0.40;0.40;;;;;;;;;;5028619;28;20094;-62
2024/01/07 00:32:55;;;;;;;0.80;0.80;;;;;;;;;;5029171;28;20053;-62
2024/01/07 00:35:21;;;;;;;1.23;1.13;;;;;;;;;;5029116;28;20021;-62
2024/01/07 00:37:46;;;;;;;0.80;0.80;;;;;;;;;;5029060;28;20033;-62
2024/01/07 00:40:11;;;;;;;1.50;1.40;;;;;;;;;;5028975;28;20503;-62
2024/01/07 00:42:36;;;;;;;0.50;0.50;;;;;;;;;;5029349;28;20020;-62
2024/01/07 00:45:02;;;;;;;3.30;2.10;;;;;;;;;;5028616;28;20021;-62
2024/01/07 00:47:28;;;;;;;0.60;0.60;;;;;;;;;;5027722;28;20029;-62
2024/01/07 00:49:53;;;;;;;0.60;0.60;;;;;;;;;;5029238;28;20380;-62
2024/01/07 00:52:18;;;;;;;0.50;0.50;;;;;;;;;;5029655;28;20027;-62
2024/01/07 00:54:43;;;;;;;0.50;0.50;;;;;;;;;;5028652;28;20397;-62
2024/01/07 00:57:10;;;;;;;0.83;0.83;;;;;;;;;;5028129;28;20026;-62
2024/01/07 00:59:35;;;;;;;2.00;1.70;;;;;;;;;;5029168;28;20031;-62
2024/01/07 01:02:00;;;;;;;2.20;1.87;;;;;;;;;;5028117;28;20025;-62
2024/01/07 01:04:25;;;;;;;3.30;2.10;;;;;;;;;;5029082;28;20088;-62
2024/01/07 01:06:51;;;;;;;0.80;0.80;;;;;;;;;;5026810;28;20022;-62
2024/01/07 01:09:16;;;;;;;4.10;1.63;;;;;;;;;;5028853;28;20022;-62
2024/01/07 01:11:41;;;;;;;1.37;1.27;;;;;;;;;;5028721;28;20048;-62
2024/01/07 01:14:06;;;;;;;0.40;0.40;;;;;;;;;;5028258;28;20025;-62
2024/01/07 01:16:32;;;;;;;0.70;0.70;;;;;;;;;;5025734;28;20022;-61
2024/01/07 01:18:57;;;;;;;1.37;1.27;;;;;;;;;;5027229;28;20049;-61
2024/01/07 01:21:22;;;;;;;1.67;1.57;;;;;;;;;;5029031;28;20072;-61
2024/01/07 01:23:48;;;;;;;0.97;0.97;;;;;;;;;;5029282;28;20029;-61
2024/01/07 01:26:13;;;;;;;0.60;0.60;;;;;;;;;;5028146;28;20030;-62
2024/01/07 01:28:39;;;;;;;0.50;0.50;;;;;;;;;;5025813;28;20439;-62
2024/01/07 01:31:05;;;;;;;0.70;0.70;;;;;;;;;;5028945;28;20103;-62
2024/01/07 01:33:30;;;;;;;0.50;0.50;;;;;;;;;;5031792;28;20080;-61
2024/01/07 01:35:55;;;;;;;0.73;0.73;;;;;;;;;;5032122;28;20029;-61
2024/01/07 01:38:21;;;;;;;0.40;0.40;;;;;;;;;;5031448;28;20044;-61
2024/01/07 01:40:53;;;;;;;0.70;0.70;;;;;;;;;;5031234;28;20125;-64
2024/01/07 01:43:25;;;;;;;2.80;1.20;;;;;;;;;;5031839;28;20052;-62
2024/01/07 01:45:50;;;;;;;1.23;1.13;;;;;;;;;;5030972;28;20009;-61
2024/01/07 01:48:16;;;;;;;0.50;0.50;;;;;;;;;;5031826;28;20465;-61
2024/01/07 01:50:41;;;;;;;0.50;0.50;;;;;;;;;;5032307;28;20362;-61
2024/01/07 01:53:06;;;;;;;0.77;0.77;;;;;;;;;;5031762;28;20036;-62
2024/01/07 01:55:32;;;;;;;2.40;1.03;;;;;;;;;;5031876;28;20052;-62
2024/01/07 01:57:59;;;;;;;0.70;0.70;;;;;;;;;;5031589;28;20543;-62
2024/01/07 02:00:25;;;;;;;0.53;0.53;;;;;;;;;;5031608;28;20044;-62
2024/01/07 02:02:50;;;;;;;0.50;0.50;;;;;;;;;;5030824;28;20053;-61
2024/01/07 02:05:15;;;;;;;0.50;0.50;;;;;;;;;;5030695;28;20043;-61
2024/01/07 02:07:40;;;;;;;0.50;0.50;;;;;;;;;;5030773;28;20026;-61
2024/01/07 02:10:06;;;;;;;0.70;0.70;;;;;;;;;;5031370;28;20025;-61
2024/01/07 02:12:31;;;;;;;0.60;0.60;;;;;;;;;;5031245;28;20033;-62
2024/01/07 02:14:56;;;;;;;0.67;0.67;;;;;;;;;;5031078;28;20549;-62
2024/01/07 02:17:22;;;;;;;1.00;0.90;;;;;;;;;;5031555;28;20017;-61
2024/01/07 02:19:47;;;;;;;0.60;0.60;;;;;;;;;;5030057;28;20064;-61
2024/01/07 02:22:12;;;;;;;0.53;0.53;;;;;;;;;;5028861;28;20442;-62
2024/01/07 02:24:37;;;;;;;0.47;0.47;;;;;;;;;;5031028;28;20056;-61
2024/01/07 02:27:03;;;;;;;0.73;0.73;;;;;;;;;;5028539;28;20037;-62
2024/01/07 02:29:29;;;;;;;0.90;0.90;;;;;;;;;;5030167;28;20028;-62
2024/01/07 02:31:54;;;;;;;0.50;0.50;;;;;;;;;;5030901;28;20021;-62
2024/01/07 02:34:19;;;;;;;0.63;0.63;;;;;;;;;;5031245;28;20424;-62
2024/01/07 02:36:45;;;;;;;0.70;0.70;;;;;;;;;;5030310;28;20097;-62
2024/01/07 02:39:10;;;;;;;1.23;1.13;;;;;;;;;;5029656;28;20021;-62
2024/01/07 02:41:35;;;;;;;0.50;0.50;;;;;;;;;;5027409;28;20028;-61
2024/01/07 02:44:00;;;;;;;0.50;0.50;;;;;;;;;;5027494;28;20033;-62
2024/01/07 02:46:26;;;;;;;0.60;0.60;;;;;;;;;;5026316;28;20025;-62
2024/01/07 02:48:51;;;;;;;0.70;0.70;;;;;;;;;;5029553;28;20412;-62
2024/01/07 02:51:16;;;;;;;0.43;0.43;;;;;;;;;;5029222;28;20116;-61
2024/01/07 02:53:41;;;;;;;0.87;0.87;;;;;;;;;;5029475;28;20025;-62
2024/01/07 02:56:08;;;;;;;0.70;0.70;;;;;;;;;;5028981;28;20033;-62
2024/01/07 02:58:34;;;;;;;1.33;1.23;;;;;;;;;;5029916;28;20036;-62
2024/01/07 03:01:00;;;;;;;0.50;0.50;;;;;;;;;;5029944;28;20095;-62
2024/01/07 03:03:25;;;;;;;1.43;1.23;;;;;;;;;;5029585;28;20017;-62
2024/01/07 03:05:51;;;;;;;0.50;0.50;;;;;;;;;;5029716;28;20024;-62
2024/01/07 03:08:16;;;;;;;0.50;0.50;;;;;;;;;;5029010;28;20028;-62
2024/01/07 03:10:41;;;;;;;0.73;0.63;;;;;;;;;;5029098;28;20091;-62
2024/01/07 03:13:06;;;;;;;0.50;0.50;;;;;;;;;;5029710;28;20021;-62
2024/01/07 03:15:32;;;;;;;1.23;1.13;;;;;;;;;;5029476;28;20029;-62
2024/01/07 03:17:57;;;;;;;0.40;0.40;;;;;;;;;;5029604;28;20112;-62
2024/01/07 03:20:22;;;;;;;0.50;0.50;;;;;;;;;;5028945;28;20049;-62
2024/01/07 03:22:47;;;;;;;0.40;0.40;;;;;;;;;;5029357;28;20444;-62
2024/01/07 03:25:13;;;;;;;0.40;0.40;;;;;;;;;;5029248;28;20387;-62
2024/01/07 03:27:38;;;;;;;8.13;1.53;;;;;;;;;;5026915;28;20029;-62
2024/01/07 03:30:04;;;;;;;0.40;0.40;;;;;;;;;;5028861;28;20382;-62
2024/01/07 03:32:29;;;;;;;0.70;0.70;;;;;;;;;;5029457;28;20029;-61
2024/01/07 03:34:54;;;;;;;0.60;0.60;;;;;;;;;;5029022;28;20037;-62
2024/01/07 03:37:20;;;;;;;0.40;0.40;;;;;;;;;;5029144;28;20462;-61
2024/01/07 03:39:46;;;;;;;0.40;0.40;;;;;;;;;;5028960;28;20075;-61
2024/01/07 03:42:11;;;;;;;0.40;0.40;;;;;;;;;;5027141;28;20017;-62
2024/01/07 03:44:38;;;;;;;0.50;0.50;;;;;;;;;;5028512;28;20028;-61
2024/01/07 03:47:03;;;;;;;0.50;0.50;;;;;;;;;;5028295;28;20080;-61
2024/01/07 03:49:28;;;;;;;0.60;0.60;;;;;;;;;;5028931;28;20049;-61
2024/01/07 03:51:54;;;;;;;0.47;0.47;;;;;;;;;;5028641;28;20373;-62
2024/01/07 03:54:19;;;;;;;1.33;1.13;;;;;;;;;;5026837;28;20021;-62
2024/01/07 03:56:44;;;;;;;0.60;0.60;;;;;;;;;;5027833;28;20091;-62
2024/01/07 03:59:09;;;;;;;0.50;0.50;;;;;;;;;;5028903;28;20021;-62
2024/01/07 04:01:35;;;;;;;0.70;0.70;;;;;;;;;;5027791;28;20029;-61
2024/01/07 04:04:00;;;;;;;6.63;1.53;;;;;;;;;;5029042;28;20028;-62
2024/01/07 04:06:25;;;;;;;0.97;0.97;;;;;;;;;;5028900;28;20032;-62
2024/01/07 04:08:50;;;;;;;0.80;0.80;;;;;;;;;;5028527;28;20032;-62
2024/01/07 04:11:15;;;;;;;1.13;0.83;;;;;;;;;;5028748;28;20500;-61
2024/01/07 04:13:41;;;;;;;0.50;0.50;;;;;;;;;;5028706;28;20040;-62
2024/01/07 04:16:15;;;;;;;0.50;0.50;;;;;;;;;;5028559;28;20033;-62
2024/01/07 04:18:40;;;;;;;0.80;0.77;;;;;;;;;;5026881;28;20021;-62
2024/01/07 04:21:08;;;;;;;0.60;0.60;;;;;;;;;;5028531;28;20382;-62
2024/01/07 04:23:34;;;;;;;0.50;0.50;;;;;;;;;;5027915;28;20108;-62
2024/01/07 04:25:59;;;;;;;1.73;1.63;;;;;;;;;;5028730;28;20104;-62
2024/01/07 04:28:24;;;;;;;0.63;0.60;;;;;;;;;;5028077;28;20022;-61
2024/01/07 04:30:50;;;;;;;0.50;0.50;;;;;;;;;;5028885;28;20025;-62
2024/01/07 04:33:15;;;;;;;1.17;1.07;;;;;;;;;;5028299;28;20433;-62
2024/01/07 04:35:40;;;;;;;0.50;0.50;;;;;;;;;;5027538;28;20025;-61
2024/01/07 04:38:06;;;;;;;0.50;0.50;;;;;;;;;;5027955;28;20029;-62
2024/01/07 04:40:31;;;;;;;3.27;2.10;;;;;;;;;;5027783;28;20095;-63
2024/01/07 04:42:56;;;;;;;0.57;0.57;;;;;;;;;;5028647;28;20079;-62
2024/01/07 04:45:21;;;;;;;0.80;0.80;;;;;;;;;;5026805;28;20017;-62
2024/01/07 04:47:47;;;;;;;1.27;1.17;;;;;;;;;;5028348;28;20072;-62
2024/01/07 04:50:14;;;;;;;0.40;0.40;;;;;;;;;;5027899;28;20811;-62
2024/01/07 04:52:40;;;;;;;0.50;0.50;;;;;;;;;;5025695;28;20028;-61
2024/01/07 04:55:05;;;;;;;0.60;0.60;;;;;;;;;;5028323;28;20474;-61
2024/01/07 04:57:30;;;;;;;0.77;0.77;;;;;;;;;;5028347;28;20022;-62
2024/01/07 04:59:56;;;;;;;1.33;1.23;;;;;;;;;;5028160;28;20083;-62
2024/01/07 05:02:21;;;;;;;0.90;0.90;;;;;;;;;;5028643;28;20028;-61
2024/01/07 05:04:46;;;;;;;0.53;0.53;;;;;;;;;;5028028;28;20076;-62
2024/01/07 05:07:12;;;;;;;0.40;0.40;;;;;;;;;;5029110;28;20682;-61
2024/01/07 05:09:37;;;;;;;0.80;0.80;;;;;;;;;;5031748;28;20077;-61
2024/01/07 05:12:03;;;;;;;1.27;1.17;;;;;;;;;;5032194;28;20470;-61
2024/01/07 05:14:28;;;;;;;0.60;0.60;;;;;;;;;;5031581;28;20488;-61
2024/01/07 05:16:56;;;;;;;0.40;0.40;;;;;;;;;;5031957;28;20030;-62
2024/01/07 05:19:22;;;;;;;0.67;0.67;;;;;;;;;;5030589;28;20068;-61
2024/01/07 05:21:47;;;;;;;0.60;0.60;;;;;;;;;;5031428;28;20385;-62
2024/01/07 05:24:12;;;;;;;0.50;0.50;;;;;;;;;;5031633;28;20157;-62
2024/01/07 05:26:41;;;;;;;1.47;1.37;;;;;;;;;;5031772;28;20351;-62
2024/01/07 05:29:07;;;;;;;0.40;0.40;;;;;;;;;;5031301;28;20082;-62
2024/01/07 05:31:32;;;;;;;0.40;0.40;;;;;;;;;;5031168;28;20029;-61
2024/01/07 05:33:57;;;;;;;0.63;0.63;;;;;;;;;;5031373;28;20386;-61
2024/01/07 05:36:22;;;;;;;1.53;1.43;;;;;;;;;;5031301;28;20033;-62
2024/01/07 05:38:48;;;;;;;0.70;0.70;;;;;;;;;;5031806;28;20033;-62
2024/01/07 05:41:13;;;;;;;1.03;1.03;;;;;;;;;;5031281;28;20025;-61
2024/01/07 05:43:38;;;;;;;0.50;0.50;;;;;;;;;;5030807;28;20032;-62
2024/01/07 05:46:03;;;;;;;0.50;0.50;;;;;;;;;;5013633;28;20542;-62
2024/01/07 05:48:29;;;;;;;0.50;0.50;;;;;;;;;;5031430;28;20025;-61
2024/01/07 05:50:54;;;;;;;0.67;0.67;;;;;;;;;;5031323;28;20120;-62
2024/01/07 05:53:19;;;;;;;0.43;0.43;;;;;;;;;;5031621;28;20025;-61
2024/01/07 05:55:44;;;;;;;0.80;0.80;;;;;;;;;;5031369;28;20123;-61
2024/01/07 05:58:10;;;;;;;0.87;0.87;;;;;;;;;;5031182;28;20470;-61
2024/01/07 06:00:35;;;;;;;0.63;0.63;;;;;;;;;;5030937;28;20491;-61
2024/01/07 06:03:00;;;;;;;0.50;0.50;;;;;;;;;;5031388;28;20486;-62
2024/01/07 06:05:26;;;;;;;1.13;1.03;;;;;;;;;;5031098;28;20017;-61
2024/01/07 06:07:51;;;;;;;0.77;0.77;;;;;;;;;;5031076;28;20777;-62
2024/01/07 06:10:16;;;;;;;0.53;0.53;;;;;;;;;;5029376;28;20056;-62
2024/01/07 06:12:42;;;;;;;0.50;0.50;;;;;;;;;;5029986;28;20095;-62
2024/01/07 06:15:07;;;;;;;0.50;0.50;;;;;;;;;;5030638;28;20034;-62
2024/01/07 06:17:33;;;;;;;3.00;1.70;;;;;;;;;;5030212;28;20544;-61
2024/01/07 06:19:58;;;;;;;1.87;1.10;;;;;;;;;;5027896;28;20045;-62
2024/01/07 06:22:23;;;;;;;0.77;0.77;;;;;;;;;;5030953;28;20071;-62
2024/01/07 06:24:49;;;;;;;0.40;0.40;;;;;;;;;;5030019;28;20025;-61
2024/01/07 06:27:14;;;;;;;0.60;0.60;;;;;;;;;;5030107;28;20480;-62
2024/01/07 06:29:39;;;;;;;0.50;0.50;;;;;;;;;;5030585;28;20029;-62
2024/01/07 06:32:04;;;;;;;0.50;0.50;;;;;;;;;;5030525;28;20036;-61
2024/01/07 06:34:30;;;;;;;0.60;0.60;;;;;;;;;;5029686;28;20097;-62
2024/01/07 06:36:55;;;;;;;0.50;0.50;;;;;;;;;;5030519;28;20122;-62
2024/01/07 06:39:20;;;;;;;1.03;0.97;;;;;;;;;;5029748;28;20029;-62
2024/01/07 06:41:46;;;;;;;0.50;0.50;;;;;;;;;;5030584;28;20055;-62
2024/01/07 06:44:12;;;;;;;0.70;0.70;;;;;;;;;;5030256;28;20025;-62
2024/01/07 06:46:37;;;;;;;0.50;0.50;;;;;;;;;;5029449;28;20136;-62
2024/01/07 06:49:02;;;;;;;0.60;0.60;;;;;;;;;;5029048;28;20116;-61
2024/01/07 06:51:27;;;;;;;0.50;0.50;;;;;;;;;;5028028;28;20095;-62
2024/01/07 06:53:53;;;;;;;1.07;0.97;;;;;;;;;;5030296;28;20029;-62
2024/01/07 06:56:18;;;;;;;0.60;0.60;;;;;;;;;;5029926;28;20021;-62
2024/01/07 06:58:43;;;;;;;1.53;1.43;;;;;;;;;;5029534;28;20096;-61
2024/01/07 07:01:09;;;;;;;0.63;0.63;;;;;;;;;;5029957;28;20028;-62
2024/01/07 07:03:34;;;;;;;0.60;0.60;;;;;;;;;;5029220;28;20071;-62
2024/01/07 07:05:59;;;;;;;0.77;0.77;;;;;;;;;;5029582;28;20093;-62
2024/01/07 07:08:25;;;;;;;0.70;0.70;;;;;;;;;;5028805;28;20036;-62
2024/01/07 07:10:50;;;;;;;0.60;0.60;;;;;;;;;;5028629;28;20037;-62
2024/01/07 07:13:15;;;;;;;0.60;0.60;;;;;;;;;;5029705;28;20025;-62
2024/01/07 07:15:40;;;;;;;1.13;1.13;;;;;;;;;;5029423;28;20029;-62
2024/01/07 07:18:06;;;;;;;0.70;0.70;;;;;;;;;;5030126;28;20049;-62
2024/01/07 07:20:31;;;;;;;0.60;0.60;;;;;;;;;;5027360;28;20100;-62
2024/01/07 07:22:56;;;;;;;0.70;0.70;;;;;;;;;;5029582;28;20026;-62
2024/01/07 07:25:22;;;;;;;0.97;0.90;;;;;;;;;;5029469;28;20028;-62
2024/01/07 07:27:47;;;;;;;0.70;0.70;;;;;;;;;;5030301;28;20029;-62
2024/01/07 07:30:12;;;;;;;0.70;0.70;;;;;;;;;;5027733;28;20114;-62
2024/01/07 07:32:41;;;;;;;2.23;2.03;;;;;;;;;;5030534;28;20037;-62
2024/01/07 07:35:07;;;;;;;0.60;0.60;;;;;;;;;;5029850;28;20134;-62
2024/01/07 07:37:32;;;;;;;0.53;0.53;;;;;;;;;;5030353;28;20359;-62
2024/01/07 07:39:58;;;;;;;0.67;0.67;;;;;;;;;;5028671;28;20368;-62
2024/01/07 07:42:23;;;;;;;0.70;0.70;;;;;;;;;;5029681;28;20061;-62
2024/01/07 07:44:48;;;;;;;0.60;0.60;;;;;;;;;;5029487;28;20033;-62
2024/01/07 07:47:13;;;;;;;0.67;0.67;;;;;;;;;;5029681;28;20431;-62
2024/01/07 07:49:40;;;;;;;0.50;0.50;;;;;;;;;;5028986;28;20544;-62
2024/01/07 07:52:06;;;;;;;0.87;0.87;;;;;;;;;;5029588;28;20032;-62
2024/01/07 07:54:31;;;;;;;0.50;0.50;;;;;;;;;;5029992;28;20725;-61
2024/01/07 07:56:57;;;;;;;1.33;1.20;;;;;;;;;;5029237;28;20430;-61
2024/01/07 07:59:23;;;;;;;0.80;0.63;;;;;;;;;;5029546;28;20059;-62
2024/01/07 08:01:49;;;;;;;0.73;0.73;;;;;;;;;;5029641;28;20687;-62
2024/01/07 08:04:14;;;;;;;0.70;0.70;;;;;;;;;;5029017;28;20033;-62
2024/01/07 08:06:39;;;;;;;0.60;0.60;;;;;;;;;;5029123;28;20049;-62
2024/01/07 08:09:05;;;;;;;1.07;1.00;;;;;;;;;;5029260;28;20021;-62
2024/01/07 08:11:30;;;;;;;0.63;0.63;;;;;;;;;;5029862;28;20381;-62
2024/01/07 08:13:57;;;;;;;0.60;0.60;;;;;;;;;;5004043;28;20025;-62
2024/01/07 08:16:22;;;;;;;0.60;0.60;;;;;;;;;;5028108;28;20382;-62
2024/01/07 08:18:47;;;;;;;0.67;0.67;;;;;;;;;;5027219;28;20057;-62
2024/01/07 08:21:13;;;;;;;0.70;0.70;;;;;;;;;;5029465;28;20032;-62
2024/01/07 08:23:38;;;;;;;0.97;0.80;;;;;;;;;;5027472;28;20029;-62
2024/01/07 08:26:04;;;;;;;0.50;0.50;;;;;;;;;;5028562;28;20030;-62
2024/01/07 08:28:29;;;;;;;1.03;0.93;;;;;;;;;;5027753;28;20024;-62
2024/01/07 08:30:56;;;;;;;0.60;0.60;;;;;;;;;;5028401;28;20084;-62
2024/01/07 08:33:21;;;;;;;0.70;0.70;;;;;;;;;;5009874;28;20037;-61
2024/01/07 08:35:46;;;;;;;1.07;0.80;;;;;;;;;;5029626;28;20032;-62
2024/01/07 08:38:11;;;;;;;0.50;0.50;;;;;;;;;;5029535;28;20426;-62
2024/01/07 08:40:39;;;;;;;0.90;0.73;;;;;;;;;;5029009;28;20079;-62
2024/01/07 08:43:04;;;;;;;0.80;0.80;;;;;;;;;;5032016;28;20037;-62
2024/01/07 08:45:29;;;;;;;1.23;0.97;;;;;;;;;;5033387;28;20478;-62
2024/01/07 08:47:54;;;;;;;1.50;1.03;;;;;;;;;;5032694;28;20464;-62
2024/01/07 08:50:20;;;;;;;1.47;0.90;;;;;;;;;;5032402;28;20022;-63
2024/01/07 08:52:46;;;;;;;1.57;1.20;;;;;;;;;;5032147;28;20025;-62
2024/01/07 08:55:11;;;;;;;1.60;0.90;;;;;;;;;;5032841;28;20571;-62
2024/01/07 08:57:37;;;;;;;0.90;0.87;;;;;;;;;;5033055;28;20029;-62
2024/01/07 09:00:04;;;;;;;1.43;1.10;;;;;;;;;;5032785;28;20124;-64
2024/01/07 09:02:29;;;;;;;2.33;1.10;;;;;;;;;;5032915;28;20039;-62
2024/01/07 09:04:55;;;;;;;1.83;1.43;;;;;;;;;;5032195;28;20033;-62
2024/01/07 09:07:20;;;;;;;0.70;0.70;;;;;;;;;;5032082;28;20097;-62
2024/01/07 09:09:45;;;;;;;4.17;2.07;;;;;;;;;;5032836;28;20484;-62
2024/01/07 09:12:10;;;;;;;1.60;1.00;;;;;;;;;;5033047;28;20048;-62
2024/01/07 09:14:37;;;;;;;0.80;0.60;;;;;;;;;;5032848;28;20053;-62
2024/01/07 09:17:02;;;;;;;2.27;1.10;;;;;;;;;;5032765;28;20458;-62
2024/01/07 09:19:28;;;;;;;1.67;1.17;;;;;;;;;;5030708;28;20199;-62
2024/01/07 09:21:53;;;;;;;1.47;0.90;;;;;;;;;;5031898;28;20021;-62
2024/01/07 09:24:18;;;;;;;1.83;1.20;;;;;;;;;;5030028;28;20025;-62
2024/01/07 09:26:43;;;;;;;1.97;1.10;;;;;;;;;;5031642;28;20024;-62
2024/01/07 09:29:10;;;;;;;1.90;1.07;;;;;;;;;;5031588;28;20025;-62
2024/01/07 09:31:35;;;;;;;1.97;1.20;;;;;;;;;;5031318;28;20096;-62
2024/01/07 09:34:02;;;;;;;1.30;0.90;;;;;;;;;;5030649;28;20183;-63
2024/01/07 09:36:27;;;;;;;1.80;0.90;;;;;;;;;;5028701;28;20057;-62
2024/01/07 09:38:53;;;;;;;2.43;1.00;;;;;;;;;;5031796;28;20466;-62
2024/01/07 09:41:19;;;;;;;1.30;0.90;;;;;;;;;;5030500;28;20286;-62
2024/01/07 09:43:44;;;;;;;1.70;1.17;;;;;;;;;;5031003;28;20018;-62
2024/01/07 09:46:09;;;;;;;1.53;1.00;;;;;;;;;;5031310;28;20021;-62
2024/01/07 09:48:34;;;;;;;1.90;1.17;;;;;;;;;;5030331;28;20071;-62
2024/01/07 09:51:00;;;;;;;1.90;1.13;;;;;;;;;;5031264;28;20079;-62
2024/01/07 09:53:29;;;;;;;5.27;1.63;;;;;;;;;;5029297;28;20025;-62
2024/01/07 09:56:00;;;;;;;3.00;1.57;;;;;;;;;;5030482;28;20477;-62
2024/01/07 09:58:25;;;;;;;;;;;;;;;;;;5029419;28;20021;-62
2024/01/07 10:00:51;;;;;;;1.10;0.82;;;;;;;;;;5030515;28;19916;-62
2024/01/07 10:03:17;;;;;;;1.93;1.00;;;;;;;;;;5030810;28;20548;-62
2024/01/07 10:05:42;;;;;;;2.43;1.17;;;;;;;;;;5030985;28;20022;-62
2024/01/07 10:08:07;;;;;;;4.30;1.57;;;;;;;;;;5030799;28;20024;-62
2024/01/07 10:10:34;;;;;;;2.97;1.33;;;;;;;;;;5030528;28;20076;-62
2024/01/07 10:13:00;;;;;;;6.17;1.40;;;;;;;;;;5030450;28;20044;-62
2024/01/07 10:15:25;;;;;;;3.00;1.17;;;;;;;;;;5030018;28;20053;-62
2024/01/07 10:17:54;;;;;;;3.70;1.33;;;;;;;;;;5029821;28;20022;-62
2024/01/07 10:20:19;;;;;;;4.23;1.63;;;;;;;;;;5028599;28;20199;-63
2024/01/07 10:22:51;;;;;;;4.60;1.73;;;;;;;;;;5030325;28;20088;-62
2024/01/07 10:25:16;;;;;;;3.83;1.70;;;;;;;;;;5029957;28;20346;-62
2024/01/07 10:27:42;;;;;;;5.17;1.47;;;;;;;;;;5030527;28;20237;-63
2024/01/07 10:30:08;;;;;;;5.20;1.40;;;;;;;;;;5029018;28;20044;-63
2024/01/07 10:32:35;;;;;;;3.27;1.77;;;;;;;;;;5027974;28;20029;-62
2024/01/07 10:35:04;;;;;;;3.07;1.27;;;;;;;;;;5026425;28;20107;-62
2024/01/07 10:37:30;;;;;;;4.03;1.63;;;;;;;;;;5028337;28;20026;-62
2024/01/07 10:40:03;;;;;;;3.73;1.30;;;;;;;;;;5028782;28;20060;-63
2024/01/07 10:42:32;;;;;;;4.43;1.17;;;;;;;;;;5028514;28;20100;-62
2024/01/07 10:44:58;;;;;;;5.40;1.33;;;;;;;;;;5028243;28;20026;-62
2024/01/07 10:47:24;;;;;;;3.20;1.33;;;;;;;;;;5027440;28;20022;-63
2024/01/07 10:49:50;;;;;;;3.03;1.40;;;;;;;;;;5029363;28;20099;-62
2024/01/07 10:52:16;;;;;;;3.63;1.40;;;;;;;;;;5025836;28;20113;-62
2024/01/07 10:54:42;;;;;;;3.83;1.77;;;;;;;;;;5029387;28;20466;-62
2024/01/07 10:57:08;;;;;;;2.90;1.30;;;;;;;;;;5029425;28;20462;-62
2024/01/07 10:59:33;;;;;;;3.20;1.33;;;;;;;;;;5026612;28;20027;-62
2024/01/07 11:01:59;;;;;;;3.83;1.27;;;;;;;;;;5026743;28;20527;-62
2024/01/07 11:04:33;;;;;;;3.23;1.60;;;;;;;;;;5029206;28;20046;-63
2024/01/07 11:07:17;;;;;;;4.10;1.50;;;;;;;;;;5029640;28;20018;-62
2024/01/07 11:09:54;;;;;;;3.83;1.50;;;;;;;;;;5029602;28;20033;-62
2024/01/07 11:12:20;;;;;;;4.97;1.70;;;;;;;;;;5029446;28;20105;-63
2024/01/07 11:14:48;;;;;;;6.67;1.70;;;;;;;;;;5030395;28;20137;-62
2024/01/07 11:17:13;;;;;;;4.27;1.47;;;;;;;;;;5028711;28;20032;-62
2024/01/07 11:19:49;;;;;;;6.90;1.90;;;;;;;;;;5029977;28;20037;-62
2024/01/07 11:22:24;;;;;;;4.23;1.90;;;;;;;;;;5029816;28;20565;-62
2024/01/07 11:24:53;;;;;;;6.50;1.87;;;;;;;;;;5029554;28;20599;-62
2024/01/07 11:27:20;;;;;;;4.67;2.03;;;;;;;;;;5030036;28;20470;-62
2024/01/07 11:29:52;;;;;;;10.60;2.40;;;;;;;;;;5029395;28;20022;-62
2024/01/07 11:32:18;;;;;;;6.93;2.10;;;;;;;;;;5028827;28;20013;-62
2024/01/07 11:34:44;;;;;;;9.53;2.43;;;;;;;;;;5029088;28;20401;-62
2024/01/07 11:37:13;;;;;;;6.40;2.20;;;;;;;;;;5030414;28;20017;-61
2024/01/07 11:39:38;;;;;;;34.03;10.83;;;;;;;;;;5029035;28;20083;-62
2024/01/07 11:42:03;;;;;;;10.07;2.83;;;;;;;;;;5029632;28;20485;-62
2024/01/07 11:44:29;;;;;;;4.83;2.20;;;;;;;;;;5027960;28;20101;-62
2024/01/07 11:46:55;;;;;;;5.13;2.67;;;;;;;;;;5029987;28;20025;-62
2024/01/07 11:49:20;;;;;;;5.00;2.37;;;;;;;;;;5029806;28;20025;-62
2024/01/07 11:51:46;;;;;;;9.53;2.13;;;;;;;;;;5029906;28;20025;-62
2024/01/07 11:54:11;;;;;;;4.50;1.97;;;;;;;;;;5029676;28;20021;-62
2024/01/07 11:56:37;;;;;;;5.30;1.80;;;;;;;;;;5028961;28;20033;-62
2024/01/07 11:59:03;;;;;;;3.83;1.60;;;;;;;;;;5029015;28;20079;-62
2024/01/07 12:01:28;;;;;;;5.20;2.30;;;;;;;;;;5029241;28;20013;-61
2024/01/07 12:03:53;;;;;;;4.90;2.30;;;;;;;;;;5028898;28;20021;-61
2024/01/07 12:06:19;;;;;;;6.67;2.87;;;;;;;;;;5029083;28;20100;-61
2024/01/07 12:08:44;;;;;;;4.03;1.90;;;;;;;;;;5029391;28;20458;-61
2024/01/07 12:11:14;;;;;;;4.50;2.37;;;;;;;;;;5029567;28;20025;-60
2024/01/07 12:13:39;;;;;;;5.90;2.57;;;;;;;;;;5026622;28;20017;-63
2024/01/07 12:16:05;;;;;;;4.90;2.37;;;;;;;;;;5027432;28;20055;-62
2024/01/07 12:18:31;;;;;;;5.73;2.73;;;;;;;;;;5028152;28;20025;-62
2024/01/07 12:21:00;;;;;;;5.60;2.37;;;;;;;;;;5028872;28;20040;-62
2024/01/07 12:23:26;;;;;;;6.63;2.17;;;;;;;;;;5029065;28;20466;-62
2024/01/07 12:25:52;;;;;;;6.63;1.93;;;;;;;;;;5029099;28;20025;-61
2024/01/07 12:28:20;;;;;;;6.23;2.07;;;;;;;;;;5028121;28;20079;-62
2024/01/07 12:30:47;;;;;;;8.93;3.30;;;;;;;;;;5027661;28;20037;-62
2024/01/07 12:33:15;;;;;;;6.23;2.50;;;;;;;;;;5028976;28;20029;-62
2024/01/07 12:35:41;;;;;;;10.93;4.03;;;;;;;;;;5028294;28;20071;-63
2024/01/07 12:38:06;;;;;;;5.80;2.80;;;;;;;;;;5028850;28;20115;-61
2024/01/07 12:40:32;;;;;;;9.30;3.67;;;;;;;;;;5028984;28;20040;-62
2024/01/07 12:42:57;;;;;;;9.07;2.70;;;;;;;;;;5028871;28;20029;-62
2024/01/07 12:45:23;;;;;;;6.27;2.77;;;;;;;;;;5029186;28;20108;-63
2024/01/07 12:47:48;;;;;;;6.43;2.17;;;;;;;;;;5028006;28;20013;-62
2024/01/07 12:50:13;;;;;;;6.63;2.27;;;;;;;;;;5028701;28;20021;-62
2024/01/07 12:52:39;;;;;;;9.83;2.90;;;;;;;;;;5028730;28;20021;-62
2024/01/07 12:55:05;;;;;;;12.00;3.67;;;;;;;;;;5026024;28;20045;-62
2024/01/07 12:57:30;;;;;;;5.73;2.20;;;;;;;;;;5028208;28;20065;-62
2024/01/07 12:59:55;;;;;;;7.50;3.17;;;;;;;;;;5027525;28;20492;-63
2024/01/07 13:02:20;;;;;;;6.67;3.00;;;;;;;;;;5028627;28;20041;-62
2024/01/07 13:04:46;;;;;;;8.13;3.30;;;;;;;;;;5025188;28;20021;-62
2024/01/07 13:07:11;;;;;;;7.47;3.00;;;;;;;;;;5028581;28;20022;-62
2024/01/07 13:09:36;;;;;;;5.60;2.53;;;;;;;;;;5029043;28;20770;-61
2024/01/07 13:12:04;;;;;;;8.13;3.57;;;;;;;;;;5025222;28;20060;-62
2024/01/07 13:14:29;;;;;;;6.23;2.80;;;;;;;;;;5028408;28;20021;-62
2024/01/07 13:16:54;;;;;;;9.00;3.40;;;;;;;;;;5028386;28;20448;-61
2024/01/07 13:19:20;;;;;;;8.20;3.53;;;;;;;;;;5027762;28;20425;-62
2024/01/07 13:21:45;;;;;;;10.47;3.77;;;;;;;;;;5028610;28;20028;-62
2024/01/07 13:24:11;;;;;;;8.13;3.60;;;;;;;;;;5027688;28;20022;-62
2024/01/07 13:26:36;;;;;;;7.07;3.40;;;;;;;;;;5028462;28;20045;-62
2024/01/07 13:29:03;;;;;;;7.20;3.30;;;;;;;;;;5031083;28;20055;-62
2024/01/07 13:31:28;;;;;;;8.07;3.20;;;;;;;;;;5032545;28;20029;-62
2024/01/07 13:33:53;;;;;;;6.50;2.70;;;;;;;;;;5032142;28;20032;-62
2024/01/07 13:36:19;;;;;;;10.13;3.20;;;;;;;;;;5031792;28;20021;-62
2024/01/07 13:38:44;;;;;;;7.23;2.80;;;;;;;;;;5031896;28;20026;-62
2024/01/07 13:41:09;;;;;;;7.40;3.43;;;;;;;;;;5031150;28;20030;-62
2024/01/07 13:43:37;;;;;;;7.50;2.87;;;;;;;;;;5031284;28;20140;-62
2024/01/07 13:46:02;;;;;;;7.37;3.63;;;;;;;;;;5031331;28;20045;-62
2024/01/07 13:48:28;;;;;;;8.37;3.33;;;;;;;;;;5032073;28;20029;-62
2024/01/07 13:50:54;;;;;;;6.97;3.43;;;;;;;;;;5031927;28;20029;-62
2024/01/07 13:53:19;;;;;;;7.97;3.20;;;;;;;;;;5031674;28;20041;-62
2024/01/07 13:55:46;;;;;;;11.40;3.50;;;;;;;;;;5031020;28;20025;-62
2024/01/07 13:58:11;;;;;;;7.40;3.17;;;;;;;;;;5029138;28;20147;-62
2024/01/07 14:00:37;;;;;;;6.73;3.50;;;;;;;;;;5030378;28;20121;-62
2024/01/07 14:03:02;;;;;;;8.90;3.50;;;;;;;;;;5030134;28;20032;-62
2024/01/07 14:05:27;;;;;;;8.30;3.20;;;;;;;;;;5031113;28;20060;-62
2024/01/07 14:07:52;;;;;;;8.10;3.70;;;;;;;;;;5029302;28;20029;-62
2024/01/07 14:10:19;;;;;;;10.33;3.60;;;;;;;;;;5030599;28;20079;-62
2024/01/07 14:12:44;;;;;;;9.03;3.33;;;;;;;;;;5030213;28;20025;-61
2024/01/07 14:15:10;;;;;;;12.37;3.43;;;;;;;;;;5029553;28;20460;-62
2024/01/07 14:17:35;;;;;;;8.27;3.50;;;;;;;;;;5031024;28;20401;-62
2024/01/07 14:20:00;;;;;;;7.77;3.20;;;;;;;;;;5026797;28;20532;-62
2024/01/07 14:22:26;;;;;;;9.73;4.07;;;;;;;;;;5027057;28;20458;-63
2024/01/07 14:24:51;;;;;;;7.47;3.67;;;;;;;;;;5027953;28;20026;-62
2024/01/07 14:27:16;;;;;;;8.73;3.30;;;;;;;;;;5028404;28;20032;-62
2024/01/07 14:29:42;;;;;;;12.17;3.57;;;;;;;;;;5026735;28;20030;-63
2024/01/07 14:32:07;;;;;;;8.17;3.63;;;;;;;;;;5027402;28;20060;-63
2024/01/07 14:34:33;;;;;;;8.43;4.57;;;;;;;;;;5028353;28;20683;-62